Latest Weather Observations for Cape Byron

IDN60801

Issued at 10:35 am EST Thursday 24 July 2014 (issued every 30 minutes, with the page automatically refreshed every 10 minutes)

About weather observations | Map of weather stations | Latest weather observations for NSW | Other Formats
Station Details ID: 058216 Name: CAPE BYRON AWS Lat: -28.64 Lon: 153.64 Height: 95.0 m
Data from the previous 72 hours. | See also: Recent months at Cape Byron
Date/Time
EST
Temp
°C
App
Temp
°C
Dew
Point
Rel
Hum
%
Delta-T
°C
Wind Press
QNH
hPa
Press
MSL
hPa
Rain
since 9 am
mm
Dir
 
Spd
km/h
Gust
km/h
Spd
kts
Gust
kts
24/10:30am 17.0 16.1 11.3 69 3.1 S 7 9 4 5 1024.0 - 0.0
24/10:00am 16.8 15.5 11.3 70 3.0 S 9 11 5 6 1024.0 1023.9 0.0
24/09:30am 16.2 14.5 11.2 72 2.7 SSW 11 15 6 8 1024.0 - 0.0
24/09:00am 14.9 13.1 10.7 76 2.2 SW 11 11 6 6 1023.6 1023.5 0.2
24/08:30am 14.1 11.8 10.5 79 1.9 SW 13 17 7 9 1023.4 - 0.2
24/08:00am 14.1 11.3 10.1 77 2.1 WSW 15 20 8 11 1023.4 1023.3 0.2
24/07:30am 13.5 10.0 10.1 80 1.8 WSW 19 24 10 13 1023.3 - 0.2
24/07:00am 13.3 9.1 9.9 80 1.7 WSW 22 26 12 14 1023.2 1023.1 0.2
24/06:30am 12.9 8.7 9.9 82 1.5 WSW 22 28 12 15 1022.8 - 0.2
24/06:00am 12.9 9.3 9.9 82 1.5 WSW 19 22 10 12 1022.4 1022.3 0.2
24/05:30am 13.2 9.0 9.8 80 1.8 WSW 22 28 12 15 1022.4 - 0.2
24/05:00am 13.0 8.5 10.0 82 1.5 WSW 24 28 13 15 1021.8 1021.7 0.2
24/04:30am 13.5 10.3 10.1 80 1.8 WSW 17 22 9 12 1021.5 - 0.2
24/04:00am 13.8 11.1 10.2 79 1.9 WSW 15 17 8 9 1021.9 1021.8 0.2
24/03:30am 13.3 10.1 10.1 81 1.7 W 17 20 9 11 1021.7 - 0.2
24/03:00am 13.0 9.4 10.4 84 1.3 W 20 24 11 13 1021.6 1021.5 0.2
24/02:30am 13.3 9.6 10.3 82 1.6 W 20 28 11 15 1021.9 - 0.2
24/02:00am 13.6 10.0 10.6 82 1.6 WSW 20 26 11 14 1021.9 1021.8 0.2
24/01:30am 13.4 9.5 10.8 84 1.4 WSW 22 26 12 14 1022.0 - 0.2
24/01:00am 13.5 10.1 10.7 83 1.5 WSW 19 22 10 12 1022.4 1022.3 0.2
24/12:30am 13.5 10.2 11.0 85 1.3 WSW 19 20 10 11 1022.2 - 0.2
24/12:00am 14.2 11.8 10.2 77 2.1 SW 13 19 7 10 1022.3 1022.2 0.0
 
Date/Time
EST
Temp
°C
App
Temp
°C
Dew
Point
Rel
Hum
%
Delta-T
°C
Wind Press
QNH
hPa
Press
MSL
hPa
Rain
since 9 am
mm
Dir
 
Spd
km/h
Gust
km/h
Spd
kts
Gust
kts
23/11:30pm 15.1 13.7 10.9 76 2.2 SSW 9 13 5 7 1022.6 - 0.0
23/11:00pm 15.1 13.3 10.7 75 2.3 SSW 11 15 6 8 1022.6 1022.5 0.0
23/10:30pm 16.2 12.9 11.6 74 2.5 ESE 20 26 11 14 1022.8 - 0.0
23/10:00pm 16.3 13.4 11.0 71 2.8 SE 17 19 9 10 1022.7 1022.6 0.0
23/09:30pm 15.9 12.5 10.4 70 2.9 E 19 24 10 13 1022.7 - 0.0
23/09:00pm 16.2 12.8 10.7 70 2.9 ESE 19 24 10 13 1022.8 1022.7 0.0
23/08:30pm 16.3 12.7 10.4 68 3.1 ESE 20 24 11 13 1022.7 - 0.0
23/08:00pm 16.1 12.7 10.6 70 2.9 SE 19 26 10 14 1022.9 1022.8 0.0
23/07:30pm 16.0 12.5 11.0 72 2.7 SE 20 26 11 14 1022.6 - 0.0
23/07:00pm 15.3 13.4 11.7 79 1.9 S 13 17 7 9 1022.5 1022.4 0.0
23/06:30pm 15.3 13.2 11.1 76 2.3 SSW 13 17 7 9 1022.6 - 0.0
23/06:00pm 16.2 13.3 10.9 71 2.8 SSE 17 22 9 12 1022.6 1022.5 0.0
23/05:30pm 16.1 14.0 11.1 72 2.7 SSE 13 20 7 11 1022.2 - 0.0
23/05:00pm 15.8 12.8 11.8 77 2.2 S 19 26 10 14 1021.5 1021.4 0.0
23/04:30pm 15.9 11.4 11.3 74 2.5 SSE 26 35 14 19 1021.6 - 0.0
23/04:00pm 16.2 12.3 10.7 70 2.9 S 22 30 12 16 1021.5 1021.4 0.0
23/03:30pm 17.0 12.3 12.1 73 2.7 S 28 33 15 18 1021.6 - 0.0
23/03:00pm 16.7 11.4 11.4 71 2.9 S 30 35 16 19 1021.2 1021.1 0.0
23/02:30pm 16.7 11.4 11.4 71 2.9 S 30 35 16 19 1021.1 - 0.0
23/02:00pm 16.8 11.3 11.7 72 2.8 SSW 32 35 17 19 1021.1 1021.0 0.0
23/01:30pm 16.9 11.9 12.2 74 2.6 SSW 30 33 16 18 1021.2 - 0.0
23/01:00pm 16.7 11.6 10.5 67 3.3 S 28 33 15 18 1021.2 1021.1 0.0
23/12:30pm 16.8 12.6 11.1 69 3.1 SSW 24 32 13 17 1021.7 - 0.0
23/12:00pm 16.9 13.2 11.6 71 2.9 SSW 22 30 12 16 1022.2 1022.1 0.0
23/11:30am 16.5 12.7 11.2 71 2.9 SW 22 30 12 16 1022.8 - 0.0
23/11:00am 15.9 12.4 10.9 72 2.7 SW 20 26 11 14 1023.0 1022.9 0.0
23/10:30am 15.1 10.4 10.5 74 2.4 SW 26 33 14 18 1023.4 - 0.0
23/10:00am 14.2 8.9 9.8 75 2.3 WSW 28 35 15 19 1023.8 1023.7 0.0
23/09:30am 13.3 8.6 9.4 77 2.0 WSW 24 32 13 17 1024.0 - 0.0
23/09:00am 12.9 8.2 9.2 78 1.9 WSW 24 33 13 18 1023.9 1023.8 5.2
23/08:30am 12.2 7.4 8.7 79 1.8 WSW 24 32 13 17 1023.6 - 5.2
23/08:00am 11.9 5.4 8.2 78 1.8 WSW 32 39 17 21 1023.1 1023.0 5.2
23/07:30am 11.5 5.8 8.2 80 1.6 WSW 28 37 15 20 1022.8 - 5.2
23/07:00am 11.0 4.8 8.0 82 1.5 WSW 30 35 16 19 1022.4 1022.3 5.2
23/06:30am 11.0 4.9 8.2 83 1.4 WSW 30 37 16 20 1022.0 - 5.2
23/06:00am 10.8 4.7 8.2 84 1.3 WSW 30 37 16 20 1021.6 1021.5 5.2
23/05:30am 10.8 5.1 8.4 85 1.2 WSW 28 37 15 20 1021.3 - 5.2
23/05:00am 10.9 5.2 8.5 85 1.2 WSW 28 35 15 19 1021.0 1020.9 5.2
23/04:30am 11.1 4.7 8.7 85 1.2 WSW 32 37 17 20 1020.9 - 5.2
23/04:00am 11.4 5.1 8.8 84 1.3 WSW 32 37 17 20 1020.7 1020.6 5.2
23/03:30am 11.5 5.2 8.9 84 1.3 WSW 32 39 17 21 1021.0 - 5.2
23/03:00am 11.3 6.1 8.9 85 1.2 WSW 26 33 14 18 1021.0 1020.9 5.2
23/02:30am 11.4 6.3 9.1 86 1.2 WSW 26 33 14 18 1021.3 - 5.2
23/02:00am 11.4 5.9 9.3 87 1.1 WSW 28 35 15 19 1021.4 1021.3 5.2
23/01:30am 11.5 5.7 9.6 88 1.0 WSW 30 35 16 19 1021.4 - 5.2
23/01:00am 11.6 5.9 9.7 88 1.0 WSW 30 37 16 20 1021.4 1021.3 5.2
23/12:30am 11.6 5.6 10.0 90 0.8 WSW 32 39 17 21 1021.4 - 5.2
23/12:00am 11.5 6.6 9.9 90 0.8 WSW 26 35 14 19 1021.9 1021.8 5.2
 
Date/Time
EST
Temp
°C
App
Temp
°C
Dew
Point
Rel
Hum
%
Delta-T
°C
Wind Press
QNH
hPa
Press
MSL
hPa
Rain
since 9 am
mm
Dir
 
Spd
km/h
Gust
km/h
Spd
kts
Gust
kts
22/11:30pm 11.8 6.6 10.2 90 0.8 WSW 28 37 15 20 1021.9 - 5.2
22/11:00pm 11.8 6.5 10.0 89 0.9 W 28 35 15 19 1021.5 1021.4 5.2
22/10:30pm 12.0 7.2 10.4 90 0.8 W 26 33 14 18 1021.8 - 5.2
22/10:00pm 12.4 7.0 10.8 90 0.8 WSW 30 39 16 21 1022.1 1022.0 5.2
22/09:30pm 12.8 8.4 10.5 86 1.2 WSW 24 35 13 19 1022.1 - 5.0
22/09:00pm 13.2 10.8 11.3 88 1.0 WSW 15 20 8 11 1022.0 1021.9 5.0
22/08:30pm 11.8 7.8 10.4 91 0.7 W 22 24 12 13 1021.9 - 5.0
22/08:00pm 12.0 8.4 10.6 91 0.7 W 20 24 11 13 1022.2 1022.1 5.0
22/07:30pm 13.3 10.3 11.9 91 0.8 S 19 20 10 11 1022.6 - 5.0
22/07:19pm 12.3 8.8 10.9 91 0.7 S 20 24 11 13 1022.4 - 4.8
22/07:04pm 12.2 4.0 10.4 89 0.9 SSW 44 63 24 34 1022.5 - 3.6
22/07:00pm 12.2 3.5 9.9 86 1.2 SSW 46 63 25 34 1022.3 1022.2 2.0
22/06:50pm 14.0 7.0 8.4 69 2.8 SW 35 59 19 32 1021.8 - 0.0
22/06:37pm 15.6 9.5 9.7 68 3.1 SW 32 43 17 23 1021.8 - 0.0
22/06:30pm 16.5 13.4 10.4 67 3.2 S 17 20 9 11 1021.8 - 0.0
22/06:00pm 16.4 13.2 11.1 71 2.8 SSE 19 24 10 13 1021.3 1021.2 0.0
22/05:30pm 16.0 13.1 12.2 78 2.1 SE 19 26 10 14 1020.9 - 0.0
22/05:00pm 16.0 12.4 11.8 76 2.3 SE 22 30 12 16 1020.6 1020.5 0.0
22/04:30pm 16.3 13.7 12.1 76 2.3 SSE 17 22 9 12 1020.3 - 0.0
22/04:00pm 16.6 13.4 11.9 74 2.6 SSE 20 28 11 15 1020.1 1020.0 0.0
22/03:30pm 16.7 13.3 11.4 71 2.9 S 20 26 11 14 1019.9 - 0.0
22/03:00pm 16.5 13.0 12.1 75 2.4 S 22 32 12 17 1019.8 1019.7 0.0
22/02:30pm 16.9 13.3 11.8 72 2.8 S 22 28 12 15 1019.9 - 0.0
22/02:00pm 16.7 13.5 12.0 74 2.6 S 20 28 11 15 1020.0 1019.9 0.0
22/01:30pm 16.3 12.3 11.7 74 2.5 S 24 28 13 15 1020.2 - 0.0
22/01:00pm 16.7 13.7 11.8 73 2.7 S 19 22 10 12 1020.4 1020.3 0.0
22/12:30pm 16.6 13.9 12.8 78 2.1 SSW 19 22 10 12 1020.9 - 0.0
22/12:00pm 16.3 13.5 12.5 78 2.1 SSW 19 24 10 13 1021.3 1021.2 0.0
22/11:30am 16.2 14.3 12.9 81 1.8 SW 15 20 8 11 1021.8 - 0.0
22/11:00am 15.4 12.2 11.8 79 1.9 SW 20 30 11 16 1022.3 1022.2 0.0
22/10:30am 15.4 10.7 12.0 80 1.9 SW 28 35 15 19 1022.4 - 0.0
22/10:00am 14.6 10.9 11.6 82 1.6 SW 22 28 12 15 1022.8 1022.7 0.0
22/09:30am 14.1 10.0 11.3 83 1.5 WSW 24 30 13 16 1022.8 - 0.0
22/09:00am 13.8 9.7 11.3 85 1.3 WSW 24 30 13 16 1022.8 1022.7 0.0
22/08:30am 13.2 8.9 10.9 86 1.2 WSW 24 32 13 17 1022.6 - 0.0
22/08:00am 13.0 8.4 10.9 87 1.1 WSW 26 32 14 17 1022.5 1022.4 0.0
22/07:30am 12.7 8.4 10.8 88 1.0 WSW 24 30 13 16 1022.5 - 0.0
22/07:00am 12.5 7.8 10.7 89 0.9 W 26 33 14 18 1022.1 1022.0 0.0
22/06:30am 12.3 7.6 10.7 90 0.8 W 26 33 14 18 1021.7 - 0.0
22/06:00am 12.0 8.1 10.7 92 0.7 W 22 30 12 16 1021.6 1021.5 0.0
22/05:30am 12.1 7.5 11.0 93 0.6 W 26 33 14 18 1021.4 - 0.0
22/05:00am 11.9 8.0 10.8 93 0.6 W 22 28 12 15 1021.3 1021.2 0.0
22/04:30am 11.9 8.6 10.8 93 0.6 WSW 19 26 10 14 1021.3 - 0.0
22/04:00am 11.9 7.6 10.8 93 0.6 WSW 24 30 13 16 1021.2 1021.1 0.0
22/03:30am 12.1 8.3 11.0 93 0.6 W 22 32 12 17 1021.4 - 0.0
22/03:00am 12.2 8.8 11.1 93 0.6 WSW 20 24 11 13 1021.5 1021.4 0.0
22/02:30am 12.4 9.2 11.1 92 0.7 WSW 19 24 10 13 1021.5 - 0.0
22/02:00am 12.4 9.0 11.1 92 0.7 WSW 20 24 11 13 1021.6 1021.5 0.0
22/01:30am 12.6 8.5 11.3 92 0.7 WSW 24 30 13 16 1021.9 - 0.0
22/01:00am 12.8 8.3 11.4 91 0.7 WSW 26 32 14 17 1022.1 1022.0 0.0
22/12:30am 13.2 10.0 11.8 91 0.8 WSW 20 24 11 13 1022.1 - 0.0
22/12:00am 13.1 9.5 11.7 91 0.7 WSW 22 28 12 15 1022.2 1022.1 0.0
 
Date/Time
EST
Temp
°C
App
Temp
°C
Dew
Point
Rel
Hum
%
Delta-T
°C
Wind Press
QNH
hPa
Press
MSL
hPa
Rain
since 9 am
mm
Dir
 
Spd
km/h
Gust
km/h
Spd
kts
Gust
kts
21/11:30pm 13.4 9.5 12.0 91 0.8 WSW 24 28 13 15 1022.3 - 0.0
21/11:00pm 13.4 9.5 12.0 91 0.8 WSW 24 32 13 17 1022.6 1022.5 0.0
21/10:30pm 13.3 9.7 11.7 90 0.9 WSW 22 28 12 15 1022.6 - 0.0
21/10:00pm 13.4 9.8 11.8 90 0.9 WSW 22 26 12 14 1022.7 1022.6 0.0
21/09:30pm 13.6 10.4 11.8 89 1.0 WSW 20 24 11 13 1022.9 - 0.0
21/09:00pm 13.7 10.7 11.9 89 1.0 WSW 19 24 10 13 1023.0 1022.9 0.0
21/08:30pm 13.6 11.4 12.0 90 0.9 WSW 15 19 8 10 1023.1 - 0.0
21/08:00pm 13.6 11.0 12.0 90 0.9 SW 17 20 9 11 1023.0 1022.9 0.0
21/07:30pm 14.1 12.4 12.5 90 0.9 SW 13 20 7 11 1023.0 - 0.0
21/07:00pm 14.6 12.3 13.0 90 0.9 SSW 17 22 9 12 1022.9 1022.8 0.0
21/06:30pm 14.8 12.2 13.3 91 0.8 SSW 19 22 10 12 1022.7 - 0.0
21/06:00pm 14.8 10.9 13.2 90 0.9 SSW 26 30 14 16 1022.4 1022.3 0.0
21/05:30pm 14.8 10.8 10.6 76 2.2 S 22 28 12 15 1022.2 - 0.0
21/05:00pm 15.3 12.2 12.2 82 1.7 S 20 26 11 14 1022.1 1022.0 0.0
21/04:30pm 15.8 11.6 12.4 80 1.9 SSW 26 32 14 17 1021.9 - 0.0
21/04:00pm 16.1 11.2 12.7 80 1.9 SSW 30 35 16 19 1021.6 1021.5 0.0
21/03:30pm 16.5 12.1 12.8 79 2.1 SSW 28 35 15 19 1021.4 - 0.0
21/03:00pm 16.3 11.6 13.2 82 1.7 SSW 30 35 16 19 1021.3 1021.2 0.0
21/02:30pm 16.3 11.0 12.5 78 2.1 SSW 32 35 17 19 1021.3 - 0.0
21/02:00pm 16.5 12.3 12.3 76 2.3 S 26 32 14 17 1021.3 1021.2 0.0
21/01:30pm 16.9 13.1 11.2 69 3.1 SSW 22 28 12 15 1021.3 - 0.0
21/01:00pm 16.6 13.3 12.8 78 2.1 S 22 28 12 15 1021.7 1021.6 0.0
21/12:30pm 17.1 15.0 13.6 80 2.0 SW 17 26 9 14 1022.0 - 0.0
21/12:00pm 16.3 13.4 13.0 81 1.8 SW 20 28 11 15 1022.6 1022.5 0.0
21/11:30am 16.1 12.5 13.0 82 1.7 SW 24 32 13 17 1023.0 - 0.0
21/11:00am 15.3 10.9 12.8 85 1.4 SW 28 37 15 20 1023.5 1023.4 0.0

Other Formats:

Comma delimited format used in spreadsheet applications
http://www.bom.gov.au/fwo/IDN60801/IDN60801.94599.axf

JavaScript Object Notation format (JSON) in row-major order
http://www.bom.gov.au/fwo/IDN60801/IDN60801.94599.json